createdAt,value
2019-02-11T00:01:21.848Z,7.07
2019-02-11T00:03:49.815Z,6.80
2019-02-11T00:06:17.785Z,6.33
2019-02-11T00:08:45.800Z,6.73
2019-02-11T00:11:13.732Z,6.50
2019-02-11T00:13:41.722Z,6.43
2019-02-11T00:16:09.766Z,6.90
2019-02-11T00:18:37.775Z,7.20
2019-02-11T00:21:05.803Z,6.60
2019-02-11T00:23:33.779Z,6.60
2019-02-11T00:26:01.779Z,6.80
2019-02-11T00:28:29.721Z,7.40
2019-02-11T00:30:57.704Z,7.10
2019-02-11T00:33:25.765Z,6.90
2019-02-11T00:35:53.718Z,6.50
2019-02-11T00:38:21.713Z,6.40
2019-02-11T00:40:49.680Z,6.70
2019-02-11T00:43:19.181Z,6.50
2019-02-11T00:45:47.365Z,6.57
2019-02-11T00:48:15.320Z,6.40
2019-02-11T00:50:43.404Z,6.20
2019-02-11T00:53:12.375Z,6.20
2019-02-11T00:55:40.357Z,5.97
2019-02-11T00:58:08.838Z,6.60
2019-02-11T01:00:36.803Z,5.90
2019-02-11T01:03:04.769Z,5.90
2019-02-11T01:05:32.772Z,5.93
2019-02-11T01:08:00.716Z,6.03
2019-02-11T01:10:28.685Z,6.00
2019-02-11T01:12:56.648Z,6.20
2019-02-11T01:15:24.645Z,5.57
2019-02-11T01:17:52.587Z,6.23
2019-02-11T01:20:20.576Z,6.10
2019-02-11T01:22:48.517Z,6.30
2019-02-11T01:25:16.504Z,6.13
2019-02-11T01:27:44.471Z,5.93
2019-02-11T01:30:12.717Z,5.70
2019-02-11T01:32:40.699Z,5.87
2019-02-11T01:35:08.700Z,6.10
2019-02-11T01:37:36.665Z,6.60
2019-02-11T01:40:05.561Z,6.10
2019-02-11T01:42:33.602Z,5.93
2019-02-11T01:45:01.580Z,5.70
2019-02-11T01:47:29.521Z,6.07
2019-02-11T01:49:57.574Z,6.30
2019-02-11T01:52:25.581Z,6.30
2019-02-11T01:54:53.568Z,6.00
2019-02-11T01:57:21.724Z,6.13
2019-02-11T01:59:49.722Z,5.73
2019-02-11T02:02:17.760Z,6.20
2019-02-11T02:04:45.727Z,6.30
2019-02-11T02:07:13.733Z,5.90
2019-02-11T02:09:41.759Z,6.00
2019-02-11T02:12:09.779Z,6.00
2019-02-11T02:14:37.812Z,6.03
2019-02-11T02:17:05.804Z,6.20
2019-02-11T02:19:33.742Z,6.17
2019-02-11T02:22:01.722Z,6.20
2019-02-11T02:24:29.733Z,6.03
2019-02-11T02:26:57.750Z,5.83
2019-02-11T02:29:25.740Z,5.63
2019-02-11T02:31:53.725Z,5.83
2019-02-11T02:34:21.699Z,6.03
2019-02-11T02:36:49.764Z,6.03
2019-02-11T02:39:17.822Z,6.23
2019-02-11T02:41:45.809Z,6.03
2019-02-11T02:44:13.844Z,5.73
2019-02-11T02:46:41.879Z,6.10
2019-02-11T02:49:09.853Z,6.63
2019-02-11T02:51:37.921Z,6.27
2019-02-11T02:54:05.955Z,6.10
2019-02-11T02:56:33.953Z,5.90
2019-02-11T02:59:01.882Z,6.23
2019-02-11T03:01:29.832Z,6.47
2019-02-11T03:03:57.823Z,6.67
2019-02-11T03:06:25.811Z,6.50
2019-02-11T03:08:53.903Z,6.40
2019-02-11T03:11:21.942Z,6.50
2019-02-11T03:13:50.075Z,6.10
2019-02-11T03:16:18.002Z,6.50
2019-02-11T03:18:46.024Z,6.20
2019-02-11T03:21:14.566Z,6.73
2019-02-11T03:23:42.599Z,6.40
2019-02-11T03:26:10.564Z,6.40
2019-02-11T03:28:38.548Z,6.50
2019-02-11T03:31:06.589Z,6.87
2019-02-11T03:33:34.569Z,7.07
2019-02-11T03:36:02.544Z,6.40
2019-02-11T03:38:30.508Z,6.60
2019-02-11T03:40:58.495Z,6.23
2019-02-11T03:43:26.465Z,7.10
2019-02-11T03:45:54.409Z,6.53
2019-02-11T03:48:22.388Z,6.50
2019-02-11T03:50:50.397Z,6.93
2019-02-11T03:53:18.314Z,6.97
2019-02-11T03:55:46.320Z,8.37
2019-02-11T03:58:14.285Z,9.03
2019-02-11T04:00:42.235Z,9.33
2019-02-11T04:03:10.211Z,8.27
2019-02-11T04:05:38.262Z,7.60
2019-02-11T04:08:06.266Z,7.33
2019-02-11T04:10:34.300Z,6.83
2019-02-11T04:13:02.305Z,7.10
2019-02-11T04:15:30.358Z,6.90
2019-02-11T04:17:58.360Z,6.20
2019-02-11T04:20:26.395Z,6.57
2019-02-11T04:22:54.346Z,7.03
2019-02-11T04:25:22.364Z,6.77
2019-02-11T04:27:50.418Z,6.90
2019-02-11T04:30:18.366Z,6.73
2019-02-11T04:32:46.328Z,6.40
2019-02-11T04:35:14.604Z,6.47
2019-02-11T04:37:42.571Z,6.63
2019-02-11T04:40:10.687Z,6.50
2019-02-11T04:42:38.643Z,7.00
2019-02-11T04:45:07.231Z,6.57
2019-02-11T04:47:35.288Z,6.80
2019-02-11T04:50:03.202Z,7.10
2019-02-11T04:52:31.248Z,6.67
2019-02-11T04:54:59.313Z,6.73
2019-02-11T04:57:28.835Z,6.73
2019-02-11T04:59:56.851Z,6.70
2019-02-11T05:02:24.881Z,6.27
2019-02-11T05:04:52.896Z,6.50
2019-02-11T05:07:20.933Z,6.93
2019-02-11T05:09:48.830Z,7.10
2019-02-11T05:12:16.837Z,7.00
2019-02-11T05:14:44.891Z,6.60
2019-02-11T05:17:12.850Z,7.07
2019-02-11T05:19:40.835Z,6.70
2019-02-11T05:22:08.887Z,6.97
2019-02-11T05:24:36.923Z,7.77
2019-02-11T05:27:04.927Z,6.77
2019-02-11T05:29:32.920Z,6.93
2019-02-11T05:32:00.857Z,7.07
2019-02-11T05:34:28.819Z,7.17
2019-02-11T05:36:57.359Z,7.60
2019-02-11T05:39:25.400Z,8.00
2019-02-11T05:41:54.381Z,8.13
2019-02-11T05:44:22.406Z,8.07
2019-02-11T05:46:50.332Z,8.90
2019-02-11T05:49:18.605Z,8.73
2019-02-11T05:51:46.577Z,9.37
2019-02-11T05:54:14.524Z,8.73
2019-02-11T05:56:42.531Z,8.43
2019-02-11T05:59:10.537Z,7.67
2019-02-11T06:01:38.537Z,7.63
2019-02-11T06:04:06.547Z,7.87
2019-02-11T06:06:34.575Z,7.90
2019-02-11T06:09:02.547Z,8.30
2019-02-11T06:11:30.539Z,7.80
2019-02-11T06:13:58.509Z,7.80
2019-02-11T06:16:26.481Z,8.23
2019-02-11T06:18:54.541Z,9.50
2019-02-11T06:21:22.530Z,9.20
2019-02-11T06:23:50.579Z,9.60
2019-02-11T06:26:18.567Z,9.10
2019-02-11T06:28:46.636Z,9.63
2019-02-11T06:31:14.710Z,10.43
2019-02-11T06:33:42.646Z,9.63
2019-02-11T06:36:12.635Z,10.77
2019-02-11T06:38:40.322Z,11.90
2019-02-11T06:41:08.290Z,9.80
2019-02-11T06:43:36.297Z,10.47
2019-02-11T06:46:04.351Z,10.50
2019-02-11T06:48:32.272Z,9.17
2019-02-11T06:51:00.350Z,8.30
2019-02-11T06:53:28.407Z,8.60
2019-02-11T06:55:56.415Z,8.30
2019-02-11T06:58:24.814Z,7.80
2019-02-11T07:00:52.830Z,7.77
2019-02-11T07:03:20.783Z,7.30
2019-02-11T07:05:48.787Z,7.40
2019-02-11T07:08:16.748Z,7.60
2019-02-11T07:10:44.742Z,8.67
2019-02-11T07:13:12.843Z,16.47
2019-02-11T07:15:40.736Z,8.40
2019-02-11T07:18:08.732Z,10.37
2019-02-11T07:20:36.600Z,9.90
2019-02-11T07:23:04.600Z,47.63
2019-02-11T07:25:32.631Z,23.47
2019-02-11T07:28:00.808Z,22.83
2019-02-11T07:30:28.836Z,27.50
2019-02-11T07:32:56.794Z,10.67
2019-02-11T07:35:24.750Z,19.10
2019-02-11T07:37:52.649Z,14.70
2019-02-11T07:40:20.724Z,13.60
2019-02-11T07:42:53.950Z,11.90
2019-02-11T07:45:34.081Z,10.40
2019-02-11T07:48:02.093Z,9.60
2019-02-11T07:50:30.063Z,9.00
2019-02-11T07:52:58.095Z,9.97
2019-02-11T07:55:26.444Z,9.47
2019-02-11T07:57:54.313Z,12.57
2019-02-11T08:00:22.316Z,10.43
2019-02-11T08:02:50.286Z,9.83
2019-02-11T08:05:18.362Z,10.40
2019-02-11T08:07:46.359Z,9.47
2019-02-11T08:10:14.356Z,10.10
2019-02-11T08:12:42.425Z,10.50
2019-02-11T08:15:10.413Z,10.00
2019-02-11T08:17:38.397Z,9.67
2019-02-11T08:20:07.108Z,9.40
2019-02-11T08:22:35.225Z,10.10
2019-02-11T08:25:03.230Z,9.83
2019-02-11T08:27:31.113Z,9.33
2019-02-11T08:29:59.133Z,9.10
2019-02-11T08:32:27.020Z,10.33
2019-02-11T08:34:55.023Z,10.33
2019-02-11T08:37:23.073Z,9.60
2019-02-11T08:39:51.128Z,9.90
2019-02-11T08:42:19.027Z,11.07
2019-02-11T08:44:47.019Z,10.00
2019-02-11T08:47:15.057Z,10.30
2019-02-11T08:49:43.017Z,10.67
2019-02-11T08:52:11.029Z,11.23
2019-02-11T08:54:41.887Z,10.40
2019-02-11T08:57:09.835Z,10.50
2019-02-11T08:59:39.338Z,10.70
2019-02-11T09:02:07.340Z,10.70
2019-02-11T09:04:35.313Z,10.10
2019-02-11T09:07:03.218Z,10.03
2019-02-11T09:09:31.154Z,9.77
2019-02-11T09:11:59.353Z,10.40
2019-02-11T09:14:27.304Z,10.20
2019-02-11T09:16:55.202Z,10.13
2019-02-11T09:19:23.173Z,10.60
2019-02-11T09:21:51.229Z,10.10
2019-02-11T09:24:19.300Z,11.43
2019-02-11T09:26:47.393Z,18.50
2019-02-11T09:29:15.295Z,10.63
2019-02-11T09:31:43.267Z,10.67
2019-02-11T09:34:11.176Z,10.13
2019-02-11T09:36:39.151Z,11.40
2019-02-11T09:39:08.939Z,10.30
2019-02-11T09:41:36.894Z,9.50
2019-02-11T09:44:05.255Z,9.33
2019-02-11T09:46:34.238Z,9.90
2019-02-11T09:49:02.216Z,25.27
2019-02-11T09:51:30.138Z,13.00
2019-02-11T09:53:58.254Z,9.73
2019-02-11T09:56:26.223Z,10.17
2019-02-11T09:58:54.211Z,10.83
2019-02-11T10:01:22.287Z,11.13
2019-02-11T10:03:50.345Z,6.40
2019-02-11T10:06:18.235Z,6.83
2019-02-11T10:08:46.124Z,7.80
2019-02-11T10:11:14.003Z,5.90
2019-02-11T10:13:41.946Z,5.83
2019-02-11T10:16:12.618Z,5.90
2019-02-11T10:18:39.955Z,5.53
2019-02-11T10:21:07.913Z,5.67
2019-02-11T10:23:35.975Z,5.77
2019-02-11T10:26:03.985Z,6.50
2019-02-11T10:28:32.051Z,6.07
2019-02-11T10:31:01.131Z,6.33
2019-02-11T10:33:29.100Z,6.20
2019-02-11T10:35:57.151Z,6.30
2019-02-11T10:38:25.025Z,7.20
2019-02-11T10:40:53.083Z,6.13
2019-02-11T10:43:20.953Z,6.53
2019-02-11T10:45:49.089Z,6.20
2019-02-11T10:48:17.115Z,6.20
2019-02-11T10:50:44.984Z,6.30
2019-02-11T10:53:12.916Z,6.30
2019-02-11T10:55:40.872Z,8.60
2019-02-11T10:58:08.774Z,6.50
2019-02-11T11:00:37.317Z,6.53
2019-02-11T11:03:05.472Z,5.90
2019-02-11T11:05:33.461Z,6.07
2019-02-11T11:08:01.481Z,7.77
2019-02-11T11:10:30.543Z,6.10
2019-02-11T11:12:58.817Z,6.70
2019-02-11T11:15:28.961Z,6.17
2019-02-11T11:17:57.134Z,5.87
2019-02-11T11:20:25.138Z,5.80
2019-02-11T11:22:53.111Z,5.60
2019-02-11T11:25:21.101Z,6.17
2019-02-11T11:27:49.162Z,6.20
2019-02-11T11:30:17.203Z,6.27
2019-02-11T11:32:46.410Z,6.13
2019-02-11T11:35:14.507Z,6.00
2019-02-11T11:37:42.400Z,5.50
2019-02-11T11:40:11.275Z,6.20
2019-02-11T11:42:39.334Z,6.40
2019-02-11T11:45:08.742Z,7.90
2019-02-11T11:47:36.692Z,6.10
2019-02-11T11:50:04.853Z,6.03
2019-02-11T11:52:32.831Z,6.10
2019-02-11T11:55:00.827Z,5.70
2019-02-11T11:57:28.833Z,6.10
2019-02-11T11:59:56.801Z,5.50
2019-02-11T12:02:24.904Z,5.97
2019-02-11T12:04:52.908Z,5.73
2019-02-11T12:07:20.879Z,5.40
2019-02-11T12:09:49.914Z,5.63
2019-02-11T12:12:17.946Z,5.23
2019-02-11T12:14:47.206Z,5.53
2019-02-11T12:17:15.307Z,6.03
2019-02-11T12:19:44.288Z,5.47
2019-02-11T12:22:13.242Z,5.47
2019-02-11T12:24:42.404Z,5.23
2019-02-11T12:27:11.393Z,5.90
2019-02-11T12:29:39.379Z,5.80
2019-02-11T12:32:07.309Z,5.80
2019-02-11T12:34:35.302Z,5.60
2019-02-11T12:37:04.363Z,6.70
2019-02-11T12:39:33.436Z,6.13
2019-02-11T12:42:01.490Z,6.17
2019-02-11T12:44:29.643Z,5.97
2019-02-11T12:47:13.347Z,5.57
2019-02-11T12:49:27.403Z,5.40
2019-02-11T12:51:55.386Z,5.40
2019-02-11T12:54:24.378Z,5.80
2019-02-11T12:56:52.445Z,7.60
2019-02-11T12:59:20.503Z,8.53
2019-02-11T13:01:49.691Z,7.70
2019-02-11T13:04:18.712Z,5.93
2019-02-11T13:06:46.777Z,5.90
2019-02-11T13:09:17.412Z,5.93
2019-02-11T13:11:45.380Z,5.73
2019-02-11T13:14:13.435Z,5.60
2019-02-11T13:16:41.469Z,6.27
2019-02-11T13:19:09.502Z,6.43
2019-02-11T13:21:37.546Z,5.50
2019-02-11T13:24:06.579Z,5.73
2019-02-11T13:26:34.660Z,5.70
2019-02-11T13:29:04.670Z,5.37
2019-02-11T13:31:33.640Z,5.67
2019-02-11T13:34:02.645Z,5.63
2019-02-11T13:36:30.619Z,5.93
2019-02-11T13:38:58.679Z,5.90
2019-02-11T13:41:27.975Z,5.53
2019-02-11T13:43:55.961Z,5.57
2019-02-11T13:46:23.997Z,5.63
2019-02-11T13:48:53.101Z,6.20
2019-02-11T13:51:22.225Z,5.50
2019-02-11T13:53:50.314Z,5.70
2019-02-11T13:56:19.457Z,5.37
2019-02-11T13:58:51.822Z,5.07
2019-02-11T14:01:17.109Z,5.53
2019-02-11T14:03:45.164Z,5.50
2019-02-11T14:06:14.215Z,5.67
2019-02-11T14:08:42.203Z,9.60
2019-02-11T14:11:10.269Z,6.07
2019-02-11T14:13:38.415Z,5.60
2019-02-11T14:16:06.451Z,5.33
2019-02-11T14:18:35.481Z,6.10
2019-02-11T14:21:03.478Z,5.20
2019-02-11T14:23:31.526Z,5.60
2019-02-11T14:26:00.667Z,5.57
2019-02-11T14:28:28.701Z,5.37
2019-02-11T14:30:57.704Z,5.33
2019-02-11T14:33:25.762Z,5.97
2019-02-11T14:35:53.766Z,5.50
2019-02-11T14:38:21.830Z,5.70
2019-02-11T14:40:49.929Z,6.23
2019-02-11T14:43:17.957Z,7.10
2019-02-11T14:45:46.937Z,6.17
2019-02-11T14:48:27.509Z,6.87
2019-02-11T14:50:50.644Z,7.40
2019-02-11T14:53:19.669Z,6.73
2019-02-11T14:55:47.663Z,6.80
2019-02-11T14:58:16.622Z,6.97
2019-02-11T15:00:44.590Z,6.70
2019-02-11T15:03:12.570Z,5.93
2019-02-11T15:05:41.037Z,5.50
2019-02-11T15:08:08.996Z,6.70
2019-02-11T15:10:37.879Z,6.50
2019-02-11T15:13:05.929Z,6.67
2019-02-11T15:15:34.941Z,5.83
2019-02-11T15:18:02.933Z,5.53
2019-02-11T15:20:31.053Z,5.73
2019-02-11T15:22:59.058Z,6.57
2019-02-11T15:25:27.036Z,5.30
2019-02-11T15:28:01.791Z,5.80
2019-02-11T15:30:29.824Z,7.07
2019-02-11T15:32:59.886Z,5.30
2019-02-11T15:35:27.929Z,6.10
2019-02-11T15:37:55.882Z,7.07
2019-02-11T15:40:23.887Z,6.97
2019-02-11T15:42:51.818Z,5.50
2019-02-11T15:45:20.833Z,6.17
2019-02-11T15:47:48.882Z,5.60
2019-02-11T15:50:17.903Z,5.73
2019-02-11T15:52:45.849Z,5.60
2019-02-11T15:55:14.871Z,6.60
2019-02-11T15:57:42.872Z,5.93
2019-02-11T16:00:12.442Z,7.30
2019-02-11T16:02:40.448Z,6.67
2019-02-11T16:05:15.831Z,6.60
2019-02-11T16:07:43.244Z,7.23
2019-02-11T16:10:18.031Z,5.43
2019-02-11T16:12:46.036Z,6.33
2019-02-11T16:15:14.051Z,6.87
2019-02-11T16:17:43.066Z,5.40
2019-02-11T16:20:15.382Z,5.53
2019-02-11T16:22:44.433Z,5.50
2019-02-11T16:25:13.832Z,5.43
2019-02-11T16:27:41.813Z,5.40
2019-02-11T16:30:11.432Z,5.70
2019-02-11T16:32:39.484Z,6.37
2019-02-11T16:35:08.179Z,5.70
2019-02-11T16:37:36.236Z,5.50
2019-02-11T16:40:06.153Z,5.93
2019-02-11T16:42:34.113Z,7.80
2019-02-11T16:45:02.092Z,6.50
2019-02-11T16:47:31.063Z,5.60
2019-02-11T16:49:59.051Z,5.73
2019-02-11T16:52:27.139Z,6.50
2019-02-11T16:54:55.120Z,5.73
2019-02-11T16:57:23.160Z,5.83
2019-02-11T16:59:52.994Z,6.00
2019-02-11T17:02:20.735Z,5.57
2019-02-11T17:04:49.790Z,5.17
2019-02-11T17:07:17.806Z,5.50
2019-02-11T17:09:45.756Z,6.47
2019-02-11T17:12:13.744Z,5.93
2019-02-11T17:14:41.691Z,6.00
2019-02-11T17:17:09.697Z,5.93
2019-02-11T17:19:38.699Z,5.50
2019-02-11T17:22:06.637Z,6.47
2019-02-11T17:24:34.595Z,5.60
2019-02-11T17:27:02.631Z,5.93
2019-02-11T17:29:30.643Z,6.07
2019-02-11T17:32:04.689Z,5.97
2019-02-11T17:34:32.646Z,5.60
2019-02-11T17:37:00.584Z,7.10
2019-02-11T17:39:28.604Z,6.27
2019-02-11T17:41:56.668Z,6.30
2019-02-11T17:44:24.738Z,5.80
2019-02-11T17:46:52.840Z,6.37
2019-02-11T17:49:20.869Z,6.73
2019-02-11T17:51:50.053Z,5.60
2019-02-11T17:54:19.123Z,5.80
2019-02-11T17:56:47.117Z,5.63
2019-02-11T17:59:16.165Z,6.00
2019-02-11T18:01:44.065Z,6.43
2019-02-11T18:04:13.148Z,5.40
2019-02-11T18:06:42.172Z,5.83
2019-02-11T18:09:10.440Z,5.53
2019-02-11T18:11:38.482Z,5.67
2019-02-11T18:14:08.412Z,5.70
2019-02-11T18:16:36.387Z,5.93
2019-02-11T18:19:04.435Z,5.83
2019-02-11T18:21:32.876Z,5.47
2019-02-11T18:24:00.879Z,6.20
2019-02-11T18:26:28.789Z,6.13
2019-02-11T18:29:05.250Z,5.40
2019-02-11T18:31:33.247Z,5.87
2019-02-11T18:34:01.217Z,5.77
2019-02-11T18:36:29.261Z,7.00
2019-02-11T18:38:57.247Z,5.93
2019-02-11T18:41:25.189Z,6.10
2019-02-11T18:43:53.174Z,5.87
2019-02-11T18:46:21.211Z,6.00
2019-02-11T18:48:49.226Z,5.43
2019-02-11T18:51:17.207Z,5.60
2019-02-11T18:53:45.254Z,6.13
2019-02-11T18:56:13.244Z,5.70
2019-02-11T18:58:41.308Z,6.20
2019-02-11T19:01:09.380Z,5.70
2019-02-11T19:03:37.348Z,5.73
2019-02-11T19:06:05.328Z,6.67
2019-02-11T19:08:33.390Z,6.33
2019-02-11T19:11:03.122Z,5.97
2019-02-11T19:13:31.990Z,6.50
2019-02-11T19:15:59.969Z,6.03
2019-02-11T19:18:28.022Z,5.77
2019-02-11T19:20:56.120Z,7.67
2019-02-11T19:23:24.157Z,5.60
2019-02-11T19:25:52.162Z,6.43
2019-02-11T19:28:20.119Z,7.97
2019-02-11T19:30:48.075Z,5.53
2019-02-11T19:33:16.073Z,5.93
2019-02-11T19:35:43.994Z,5.80
2019-02-11T19:38:11.954Z,5.80
2019-02-11T19:40:39.965Z,6.60
2019-02-11T19:43:07.937Z,5.97
2019-02-11T19:45:36.019Z,5.77
2019-02-11T19:48:03.953Z,5.77
2019-02-11T19:50:31.923Z,5.80
2019-02-11T19:52:59.909Z,6.60
2019-02-11T19:55:27.868Z,7.07
2019-02-11T19:57:55.951Z,6.93
2019-02-11T20:00:23.946Z,6.23
2019-02-11T20:02:51.848Z,6.80
2019-02-11T20:05:19.883Z,6.40
2019-02-11T20:07:48.164Z,6.23
2019-02-11T20:10:16.303Z,6.60
2019-02-11T20:12:44.690Z,6.10
2019-02-11T20:15:14.078Z,6.13
2019-02-11T20:17:42.160Z,5.70
2019-02-11T20:20:11.290Z,7.73
2019-02-11T20:22:44.695Z,6.97
2019-02-11T20:25:12.722Z,6.30
2019-02-11T20:27:40.787Z,7.20
2019-02-11T20:30:10.083Z,6.60
2019-02-11T20:32:38.044Z,6.70
2019-02-11T20:35:06.036Z,6.03
2019-02-11T20:37:33.988Z,5.93
2019-02-11T20:40:03.812Z,6.70
2019-02-11T20:42:31.805Z,6.80
2019-02-11T20:44:59.714Z,5.53
2019-02-11T20:47:27.743Z,6.60
2019-02-11T20:49:55.792Z,6.17
2019-02-11T20:52:23.858Z,6.13
2019-02-11T20:54:51.807Z,6.90
2019-02-11T20:57:19.693Z,6.67
2019-02-11T20:59:47.705Z,6.27
2019-02-11T21:02:15.726Z,7.23
2019-02-11T21:04:43.698Z,7.47
2019-02-11T21:07:11.677Z,6.60
2019-02-11T21:09:39.714Z,6.67
2019-02-11T21:12:07.704Z,5.77
2019-02-11T21:14:35.764Z,5.97
2019-02-11T21:17:04.029Z,6.20
2019-02-11T21:19:32.004Z,6.57
2019-02-11T21:21:59.976Z,6.30
2019-02-11T21:24:28.008Z,6.60
2019-02-11T21:26:56.016Z,6.53
2019-02-11T21:29:23.991Z,6.20
2019-02-11T21:31:51.948Z,5.80
2019-02-11T21:34:19.943Z,6.67
2019-02-11T21:36:47.889Z,9.07
2019-02-11T21:39:16.200Z,7.20
2019-02-11T21:41:44.162Z,6.27
2019-02-11T21:44:12.330Z,6.37
2019-02-11T21:46:40.393Z,6.63
2019-02-11T21:49:08.461Z,7.40
2019-02-11T21:51:36.454Z,7.07
2019-02-11T21:54:04.548Z,12.17
2019-02-11T21:56:32.582Z,8.63
2019-02-11T21:59:00.647Z,6.70
2019-02-11T22:01:28.640Z,7.37
2019-02-11T22:03:56.726Z,5.87
2019-02-11T22:06:25.178Z,5.80
2019-02-11T22:08:53.132Z,6.70
2019-02-11T22:11:21.137Z,6.20
2019-02-11T22:13:49.087Z,6.67
2019-02-11T22:16:17.031Z,5.70
2019-02-11T22:18:45.169Z,5.77
2019-02-11T22:21:13.167Z,5.90
2019-02-11T22:23:41.191Z,6.30
2019-02-11T22:26:09.126Z,5.90
2019-02-11T22:28:37.085Z,6.10
2019-02-11T22:31:05.065Z,6.10
2019-02-11T22:33:33.012Z,6.10
2019-02-11T22:36:01.025Z,6.70
2019-02-11T22:38:29.065Z,6.70
2019-02-11T22:40:57.027Z,5.83
2019-02-11T22:43:25.293Z,6.57
2019-02-11T22:45:53.273Z,5.70
2019-02-11T22:48:21.261Z,6.47
2019-02-11T22:50:49.322Z,6.07
2019-02-11T22:53:17.287Z,6.10
2019-02-11T22:55:45.293Z,5.70
2019-02-11T22:58:13.251Z,5.67
2019-02-11T23:00:46.940Z,5.73
2019-02-11T23:03:14.924Z,6.67
2019-02-11T23:05:43.151Z,5.33
2019-02-11T23:08:11.142Z,5.87
2019-02-11T23:10:39.145Z,5.70
2019-02-11T23:13:07.259Z,6.10
2019-02-11T23:15:35.472Z,6.87
2019-02-11T23:18:03.461Z,6.07
2019-02-11T23:20:33.459Z,5.80
2019-02-11T23:23:01.423Z,6.40
2019-02-11T23:25:29.376Z,6.33
2019-02-11T23:27:57.368Z,6.00
2019-02-11T23:30:26.387Z,6.97
2019-02-11T23:32:54.350Z,6.40
2019-02-11T23:35:22.288Z,6.50
2019-02-11T23:37:50.250Z,6.13
2019-02-11T23:40:19.280Z,6.73
2019-02-11T23:42:47.207Z,6.87
2019-02-11T23:45:15.202Z,6.40
2019-02-11T23:47:43.281Z,6.27
2019-02-11T23:50:11.338Z,5.53
2019-02-11T23:52:39.305Z,5.93
2019-02-11T23:55:07.462Z,5.60
2019-02-11T23:57:35.448Z,6.43
